createdAt,value
2022-08-25T00:00:58.762Z,21.4
2022-08-25T00:06:01.323Z,21.4
2022-08-25T00:16:06.826Z,21.29
2022-08-25T00:21:09.497Z,21.28
2022-08-25T00:26:12.348Z,21.23
2022-08-25T00:31:15.205Z,21.2
2022-08-25T00:36:17.931Z,21.18
2022-08-25T00:41:20.651Z,21.16
2022-08-25T00:46:23.306Z,21.11
2022-08-25T00:51:25.941Z,21.1
2022-08-25T00:56:28.869Z,21.05
2022-08-25T01:01:31.764Z,21.03
2022-08-25T01:06:34.558Z,21.06
2022-08-25T01:11:37.066Z,20.99
2022-08-25T01:16:39.727Z,20.98
2022-08-25T01:21:42.494Z,20.93
2022-08-25T01:26:44.955Z,20.92
2022-08-25T01:31:47.638Z,20.89
2022-08-25T01:36:50.330Z,20.87
2022-08-25T01:41:53.031Z,20.85
2022-08-25T01:46:55.549Z,20.82
2022-08-25T01:51:58.135Z,20.77
2022-08-25T01:57:01.180Z,20.74
2022-08-25T02:02:04.832Z,20.72
2022-08-25T02:07:05.396Z,20.68
2022-08-25T02:12:08.207Z,20.65
2022-08-25T02:17:10.813Z,20.66
2022-08-25T02:22:13.789Z,20.62
2022-08-25T02:27:16.514Z,20.56
2022-08-25T02:32:19.224Z,20.52
2022-08-25T02:37:21.798Z,20.46
2022-08-25T02:42:24.378Z,20.41
2022-08-25T02:47:27.294Z,20.36
2022-08-25T02:52:29.503Z,20.29
2022-08-25T02:57:32.278Z,20.2
2022-08-25T03:02:35.088Z,20.2
2022-08-25T03:07:37.669Z,20.11
2022-08-25T03:12:40.332Z,20.07
2022-08-25T03:17:43.799Z,20.03
2022-08-25T03:22:45.869Z,19.99
2022-08-25T03:27:48.640Z,19.97
2022-08-25T03:32:51.353Z,19.96
2022-08-25T03:37:54.043Z,19.94
2022-08-25T03:42:56.770Z,19.88
2022-08-25T03:47:59.397Z,19.89
2022-08-25T03:53:02.259Z,19.88
2022-08-25T03:58:05.013Z,19.87
2022-08-25T04:03:07.527Z,19.85
2022-08-25T04:08:10.230Z,19.87
2022-08-25T04:13:12.751Z,19.84
2022-08-25T04:18:15.316Z,19.88
2022-08-25T04:23:18.046Z,19.87
2022-08-25T04:28:20.645Z,19.9
2022-08-25T04:33:23.418Z,19.96
2022-08-25T04:38:25.982Z,19.99
2022-08-25T04:43:28.934Z,20.05
2022-08-25T04:48:31.517Z,20.04
2022-08-25T04:53:34.356Z,20.15
2022-08-25T04:58:55.720Z,20.13
2022-08-25T05:03:58.598Z,20.02
2022-08-25T05:09:01.267Z,20.05
2022-08-25T05:14:03.852Z,20.02
2022-08-25T05:19:06.651Z,20.09
2022-08-25T05:24:09.567Z,20.22
2022-08-25T05:29:12.445Z,20.33
2022-08-25T05:34:15.156Z,20.39
2022-08-25T05:39:17.897Z,20.53
2022-08-25T05:44:21.541Z,20.5
2022-08-25T05:49:23.947Z,20.47
2022-08-25T05:54:26.700Z,20.51
2022-08-25T05:59:29.361Z,20.54
2022-08-25T06:04:32.069Z,20.45
2022-08-25T06:09:34.771Z,20.39
2022-08-25T06:14:37.517Z,20.46
2022-08-25T06:19:41.310Z,20.43
2022-08-25T06:24:43.066Z,20.56
2022-08-25T06:29:45.936Z,20.72
2022-08-25T06:34:51.870Z,20.67
2022-08-25T06:39:54.801Z,20.56
2022-08-25T06:44:57.534Z,20.61
2022-08-25T06:50:00.324Z,20.67
2022-08-25T06:55:02.985Z,21.02
2022-08-25T07:00:05.742Z,20.92
2022-08-25T07:10:19.452Z,21.01
2022-08-25T07:15:21.299Z,21.12
2022-08-25T07:20:29.532Z,21.16
2022-08-25T07:35:38.050Z,21.7
2022-08-25T07:40:42.872Z,22.17
2022-08-25T07:50:46.391Z,22.74
2022-08-25T07:55:49.273Z,22.89
2022-08-25T08:00:51.938Z,22.94
2022-08-25T08:05:57.597Z,22.8
2022-08-25T08:11:04.988Z,22.81
2022-08-25T08:21:05.511Z,23.25
2022-08-25T08:26:08.301Z,23.98
2022-08-25T08:31:11.008Z,24.13
2022-08-25T08:46:19.017Z,24.17
2022-08-25T08:56:24.588Z,24.22
2022-08-25T09:01:27.402Z,24.52
2022-08-25T09:07:09.985Z,24.96
2022-08-25T09:12:12.980Z,24.57
2022-08-25T09:22:34.051Z,24.42
2022-08-25T09:27:20.388Z,24.4
2022-08-25T09:32:24.273Z,25.27
2022-08-25T09:42:57.750Z,25.89
2022-08-25T09:47:58.736Z,25.4
2022-08-25T09:53:01.617Z,25.42
2022-08-25T09:58:06.922Z,25.57
2022-08-25T10:13:12.321Z,25.74
2022-08-25T10:18:15.030Z,25.74
2022-08-25T10:23:17.620Z,25.73
2022-08-25T10:28:20.738Z,26.12
2022-08-25T10:33:23.328Z,25.78
2022-08-25T10:38:27.146Z,26.19
2022-08-25T10:43:28.833Z,26.02
2022-08-25T10:48:31.717Z,26.35
2022-08-25T10:53:34.758Z,26.73
2022-08-25T10:58:40.259Z,26.48
2022-08-25T11:03:42.917Z,26.12
2022-08-25T11:08:45.382Z,25.91
2022-08-25T11:13:47.969Z,26.5
2022-08-25T11:18:50.978Z,27.19
2022-08-25T11:28:56.361Z,26.88
2022-08-25T11:33:58.865Z,27.49
2022-08-25T11:39:01.850Z,28.35
2022-08-25T11:49:07.158Z,29.2
2022-08-25T11:54:09.742Z,27.52
2022-08-25T11:59:12.169Z,27.62
2022-08-25T12:04:15.316Z,27.77
2022-08-25T12:09:17.716Z,27.52
2022-08-25T12:14:20.451Z,27.88
2022-08-25T12:19:23.125Z,28.88
2022-08-25T12:24:26.145Z,29.51
2022-08-25T12:29:28.857Z,28.29
2022-08-25T12:34:31.440Z,28.84
2022-08-25T12:44:37.145Z,28.23
2022-08-25T12:49:39.298Z,27.84
2022-08-25T12:54:42.850Z,28.2
2022-08-25T12:59:48.696Z,27.91
2022-08-25T13:14:52.507Z,28.33
2022-08-25T13:19:55.299Z,28.66
2022-08-25T13:40:10.133Z,27.73
2022-08-25T13:45:11.682Z,27.95
2022-08-25T13:50:14.513Z,28.52
2022-08-25T13:55:17.351Z,28.47
2022-08-25T14:00:19.928Z,28.36
2022-08-25T14:05:22.618Z,28.44
2022-08-25T14:10:25.605Z,28.32
2022-08-25T14:15:29.289Z,28.59
2022-08-25T14:20:35.001Z,29.16
2022-08-25T14:25:40.651Z,29.27
2022-08-25T14:30:40.405Z,29
2022-08-25T14:35:42.968Z,28.47
2022-08-25T14:40:45.645Z,28.25
2022-08-25T14:45:53.842Z,27.96
2022-08-25T14:50:56.642Z,28.24
2022-08-25T14:56:06.088Z,28.64
2022-08-25T15:06:07.789Z,28.6
2022-08-25T15:11:13.591Z,28.73
2022-08-25T15:16:16.366Z,28.72
2022-08-25T15:21:19.058Z,28.56
2022-08-25T15:26:21.666Z,28.48
2022-08-25T15:31:24.432Z,28.41
2022-08-25T15:36:27.069Z,28.48
2022-08-25T15:41:29.867Z,28.54
2022-08-25T15:46:33.059Z,28.58
2022-08-25T15:51:35.966Z,28.66
2022-08-25T16:01:59.538Z,28.08
2022-08-25T16:07:01.916Z,28.05
2022-08-25T16:12:06.664Z,28.08
2022-08-25T16:27:17.987Z,27.99
2022-08-25T16:32:20.669Z,27.9
2022-08-25T16:37:25.808Z,27.91
2022-08-25T16:42:28.578Z,27.93
2022-08-25T16:47:31.319Z,27.97
2022-08-25T16:52:34.115Z,28.03
2022-08-25T16:57:36.896Z,27.98
2022-08-25T17:02:39.489Z,27.87
2022-08-25T17:07:41.979Z,27.73
2022-08-25T17:12:44.642Z,27.77
2022-08-25T17:17:47.455Z,27.68
2022-08-25T17:27:52.947Z,27.38
2022-08-25T17:32:55.901Z,27.29
2022-08-25T17:37:58.593Z,27.22
2022-08-25T17:43:01.240Z,27.14
2022-08-25T17:53:06.393Z,27.03
2022-08-25T18:03:14.317Z,26.76
2022-08-25T18:08:16.892Z,26.74
2022-08-25T18:13:19.466Z,26.66
2022-08-25T18:18:24.191Z,26.54
2022-08-25T18:23:24.831Z,26.48
2022-08-25T18:33:30.236Z,26.31
2022-08-25T18:43:35.238Z,26.18
2022-08-25T18:49:18.021Z,26.08
2022-08-25T18:54:22.398Z,26.08
2022-08-25T18:59:24.052Z,26
2022-08-25T19:04:28.658Z,25.95
2022-08-25T19:09:28.603Z,25.86
2022-08-25T19:14:31.421Z,25.71
2022-08-25T19:24:36.715Z,25.61
2022-08-25T19:29:39.612Z,25.52
2022-08-25T19:34:42.307Z,25.53
2022-08-25T19:39:48.821Z,25.45
2022-08-25T19:44:47.618Z,25.39
2022-08-25T19:49:50.330Z,25.39
2022-08-25T19:54:58.915Z,25.3
2022-08-25T20:05:04.203Z,25.11
2022-08-25T20:10:06.754Z,25.05
2022-08-25T20:15:09.290Z,25.02
2022-08-25T20:20:12.125Z,24.98
2022-08-25T20:25:14.773Z,25
2022-08-25T20:30:17.386Z,24.97
2022-08-25T20:35:20.011Z,24.87
2022-08-25T20:46:05.851Z,24.82
2022-08-25T20:51:08.782Z,24.84
2022-08-25T21:01:15.636Z,24.74
2022-08-25T21:06:17.122Z,24.67
2022-08-25T21:11:22.755Z,24.65
2022-08-25T21:16:25.304Z,24.61
2022-08-25T21:22:07.740Z,24.57
2022-08-25T21:27:10.517Z,24.55
2022-08-25T21:42:18.166Z,24.41
2022-08-25T21:52:23.272Z,24.32
2022-08-25T22:02:28.547Z,24.29
2022-08-25T22:07:34.376Z,24.25
2022-08-25T22:17:36.449Z,24.16
2022-08-25T22:27:41.819Z,24.21
2022-08-25T22:32:45.393Z,24.27
2022-08-25T22:37:49.899Z,24.28
2022-08-25T22:42:52.484Z,24.29
2022-08-25T22:48:00.762Z,24.26
2022-08-25T22:58:06.190Z,24.14
2022-08-25T23:03:09.092Z,24.06
2022-08-25T23:08:11.608Z,23.97
2022-08-25T23:18:17.135Z,23.82
2022-08-25T23:23:19.875Z,23.75
2022-08-25T23:33:25.380Z,23.71
2022-08-25T23:38:28.169Z,23.7
2022-08-25T23:43:30.940Z,23.63
2022-08-25T23:48:33.600Z,23.55
2022-08-25T23:53:36.252Z,23.5
2022-08-25T23:58:39.150Z,23.44
